Whale Point, California Weather observations

Data are for observation ending at time listed.
 Day   Time    Ave.   Ave.  Ave.  Vector   Max.   Stn.    Total    Solar   Ave.  
  of    of     Air    Rel.  Wind   Wind    Wind   Baro.  Precip.   Rad.    Soil  
Year   Day     Temp.  Hum.  Speed  Dir.    Gust   Pres.                    Temp. 
2016   (PST)    F      %     mph   deg.    mph     mb.     in.     W/m2     F   
------------------------------------------------------------------------------
 273   20:40   61.4    62    1.3   277      3.7   996.3    0.00       0    75.9
 273   20:50   60.5    65    0.9    66      2.3   996.3    0.00       0    75.8
 273   21:00   59.5    66    0.2    16      1.1   996.3    0.00       0    75.8
 273   21:10   57.4    75    0.9   179      1.9   996.6    0.00       0    75.7
 273   21:20   55.5    83    0.2   350      1.2   996.6    0.00       0    75.6
 273   21:30   54.8    86    1.1    21      2.4   996.6    0.00       0    75.5
 273   21:40   54.6    88    1.5    20      2.4   996.6    0.00       0    75.4
 273   21:50   54.5    88    1.1    26      1.8   996.6    0.00       0    75.3
 273   22:00   55.1    85    1.5   167      3.4   996.6    0.00       0    75.1
 273   22:10   55.3    84    1.3   172      2.7   996.6    0.00       0    75.1
 273   22:20   55.4    82    1.6     8      3.1   996.6    0.00       0    74.9
 273   22:30   54.7    86    1.1   231      3.1   996.6    0.00       0    74.8
 273   22:40   54.2    88    2.6   178      5.4   996.6    0.00       0    74.7
 273   22:50   53.9    90    3.5   173      6.4   996.6    0.00       0    74.6
 273   23:00   53.9    91    3.1   170      8.6   996.6    0.00       0    74.5
 273   23:10   53.8    91    2.5   167      8.0   997.0    0.00       0    74.4
 273   23:20   53.4    91    0.5    69      1.9   997.0    0.00       0    74.3
 273   23:30   53.1    92    0.6    26      1.7   997.0    0.00       0    74.2
 273   23:40   52.7    91    0.9   121      2.3   996.6    0.00       0    74.0
 273   23:50   54.8    87    0.7    98      3.5   996.6    0.00       0    73.9
 274    0:00   55.8    77    2.0    26      4.0   996.6    0.00       0    73.8
 274    0:10   57.5    70    0.4   212      2.6   996.6    0.00       0    73.7
 274    0:20   55.9    78    1.3   188      4.5   996.6    0.00       0    73.6
 274    0:30   54.2    86    1.8   180      3.4   996.6    0.00       0    73.5
 274    0:40   53.6    89    2.4   178      8.0   996.6    0.00       0    73.4
 274    0:50   53.4    90    3.7   137      7.2   996.6    0.00       0    73.3
 274    1:00   52.9    90    0.5   304      1.9   996.6    0.00       0    73.2
 274    1:10   52.9    90    0.1     4      1.1   996.6    0.00       0    73.1
 274    1:20   52.8    90    0.6    19      1.8   996.6    0.00       0    73.0
 274    1:30   52.8    91    1.3    15      3.1   996.6    0.00       0    72.9
 274    1:40   53.3    88    1.4    36      2.8   996.6    0.00       0    72.7
 274    1:50   54.8    79    1.4    38      2.6   996.6    0.00       0    72.6
 274    2:00   56.4    70    0.7    17      1.5   996.6    0.00       0    72.5
 274    2:10   55.7    77    1.8   192      3.4   996.6    0.00       0    72.4
 274    2:20   53.7    86    0.7   183      2.3   996.6    0.00       0    72.3
 274    2:30   53.0    88    0.5     4      1.4   996.6    0.00       0    72.2
 274    2:40   52.6    89    0.1   217      0.9   996.6    0.00       0    72.1
 274    2:50   52.7    90    0.2    36      1.2   996.6    0.00       0    72.0
 274    3:00   52.4    90    1.0    15      1.6   996.6    0.00       0    71.9
 274    3:10   52.6    90    0.3    13      1.2   996.6    0.00       0    71.8
 274    3:20   52.6    90    0.4    22      1.5   996.3    0.00       0    71.7
 274    3:30   52.3    90    1.3   154      2.3   996.3    0.00       0    71.6
 274    3:40   52.7    89    0.3   154      1.3   996.3    0.00       0    71.5
 274    3:50   52.3    89    1.1   184      2.6   996.6    0.00       0    71.4
 274    4:00   52.1    91    0.6   194      2.3   996.6    0.00       0    71.3
 274    4:10   52.0    91    0.7   193      3.8   996.6    0.00       0    71.2
 274    4:20   52.1    92    1.7   143      4.4   996.3    0.00       0    71.1
 274    4:30   51.8    92    1.1   231      3.2   996.3    0.00       0    71.0
 274    4:40   51.9    92    1.0   199      3.9   996.3    0.00       0    70.9
 274    4:50   51.7    91    0.8    98      2.6   996.6    0.00       0    70.8
 274    5:00   52.1    89    0.4   184      2.2   996.6    0.00       0    70.7
 274    5:10   52.3    89    0.1    34      0.8   996.6    0.00       0    70.6
 274    5:20   51.7    89    0.4   139      2.3   996.6    0.00       0    70.5
 274    5:30   51.4    90    1.4   130      5.0   996.6    0.00       0    70.4
 274    5:40   51.3    90    1.7    92      7.1   996.6    0.00       0    70.3
 274    5:50   51.8    91    4.3   135      8.3   996.6    0.00       1    70.2
 274    6:00   51.9    92    6.2   144      9.2   996.6    0.00       2    70.2
 274    6:10   51.9    92    5.2   147      9.0   997.0    0.00       6    70.1
 274    6:20   51.2    92    1.6    45      5.3   997.0    0.00       9    70.0
 274    6:30   50.9    92    1.1    77      3.1   997.0    0.00      12    69.9
 274    6:40   51.4    92    1.6   352      4.0   997.3    0.00      14    69.8
 274    6:50   51.9    91    0.3    58      1.9   997.3    0.00      17    69.7
 274    7:00   52.2    90    1.0   176      2.2   997.0    0.00      19    69.6
 274    7:10   51.9    89    0.3   115      2.3   997.0    0.00      21    69.6
 274    7:20   52.1    90    2.6   176      5.0   997.3    0.00      23    69.5
 274    7:30   52.1    91    1.2   194      3.3   997.3    0.00      24    69.4
 274    7:40   52.1    92    0.6   215      2.0   997.3    0.00      28    69.3
 274    7:50   52.0    92    1.4   181      3.4   997.3    0.00     131    69.3
 274    8:00   53.0    92    2.3   182      3.7   997.3    0.00     369    69.2
 274    8:10   54.3    91    2.2   179      3.9   997.3    0.00     408    69.1
 274    8:20   54.5    88    2.5   198      3.6   997.6    0.00     441    69.0
 274    8:30   54.3    89    3.3   200      5.4   997.6    0.00     475    68.9
 274    8:40   53.9    90    3.4   208      5.3   997.6    0.00     508    68.9
 274    8:50   54.0    90    3.5   213      6.1   997.6    0.00     535    68.8
 274    9:00   54.3    90    3.5   205      6.0   997.6    0.00     556    68.8
 274    9:10   54.8    89    3.7   201      8.3   997.6    0.00     586    68.8
 274    9:20   54.8    88    4.3   206      7.7   997.6    0.00     614    68.7
 274    9:30   54.8    88    4.0   208      8.7   997.6    0.00     640    68.6
 274    9:40   54.9    87    4.0   207      7.4   997.6    0.00     664    68.6
 274    9:50   55.7    86    4.1   205      6.6   997.6    0.00     686    68.6
 274   10:00   56.0    85    4.4   204      7.1   997.6    0.00     707    68.5
 274   10:10   56.1    84    4.9   214      7.7   997.6    0.00     726    68.5
 274   10:20   56.4    84    4.2   211      6.3   997.6    0.00     744    68.4
 274   10:30   57.1    82    4.0   216      6.6   997.6    0.00     760    68.5
 274   10:40   57.8    81    3.8   209      6.4   997.6    0.00     774    68.5
 274   10:50   59.1    77    4.5   207      8.0   997.6    0.00     788    68.5
 274   11:00   58.7    78    5.3   207      7.7   997.6    0.00     798    68.5
 274   11:10   58.5    78    5.4   207      8.1   997.6    0.00     807    68.5
 274   11:20   58.4    78    5.2   218      7.6   997.6    0.00     815    68.5
 274   11:30   58.2    79    5.3   216      7.2   997.6    0.00     820    68.6
 274   11:40   59.5    76    5.6   212      8.4   997.6    0.00     825    68.6
 274   11:50   59.9    75    5.2   212      8.1   997.6    0.00     827    68.6
 274   12:00   59.8    75    5.2   210      7.7   997.6    0.00     827    68.7
 274   12:10   61.2    71    4.9   212      7.3   997.3    0.00     826    68.8
 274   12:20   61.0    71    5.3   215      8.3   997.3    0.00     824    68.9
 274   12:30   60.9    71    5.2   221      7.9   997.3    0.00     820    69.0
 274   12:40   61.4    69    5.0   214      8.3   997.0    0.00     814    69.1
 274   12:50   61.8    68    5.5   218      8.2   997.0    0.00     807    69.2
 274   13:00   62.0    67    5.5   212      8.8   996.6    0.00     797    69.4
 274   13:10   62.5    66    5.2   219      8.4   996.6    0.00     786    69.5
 274   13:20   62.5    65    5.5   220      8.5   996.6    0.00     773    69.7
 274   13:30   63.6    62    5.2   232      8.6   996.6    0.00     758    69.8
 274   13:40   63.8    62    5.7   238      9.5   996.3    0.00     741    70.0
 274   13:50   63.3    62    5.6   231      9.1   996.3    0.00     723    70.2
 274   14:00   63.7    62    5.3   241     10.2   996.3    0.00     704    70.4
 274   14:10   64.2    60    5.0   228      9.4   996.3    0.00     682    70.6
 274   14:20   64.8    59    5.4   232      9.3   996.3    0.00     658    70.8
 274   14:30   63.8    60    4.8   244      8.7   996.3    0.00     634    71.0
 274   14:40   63.8    60    5.1   249      9.2   996.3    0.00     610    71.2
 274   14:50   64.4    59    5.6   234      8.4   996.3    0.00     580    71.4
 274   15:00   64.3    59    5.4   233      9.5   995.9    0.00     552    71.6
 274   15:10   63.9    60    4.9   227      7.6   995.9    0.00     522    71.8
 274   15:20   64.1    60    5.0   239      8.3   995.9    0.00     491    72.0
 274   15:30   63.4    61    4.3   226      8.6   995.9    0.00     458    72.2
 274   15:40   63.8    60    5.3   240      7.8   995.6    0.00     425    72.4
 274   15:50   64.3    58    4.9   217      9.2   995.6    0.00     391    72.6
 274   16:00   63.2    60    5.8   222      9.6   995.6    0.00     356    72.8
 274   16:10   62.6    62    4.8   224      8.7   995.6    0.00     321    73.0
 274   16:20   63.2    60    5.2   236      8.1   995.6    0.00     286    73.2
 274   16:30   63.6    60    4.5   235      8.1   995.6    0.00     249    73.4
 274   16:40   63.2    61    4.8   246      7.2   995.6    0.00     214    73.6
 274   16:50   62.3    62    4.1   242      6.4   995.6    0.00     179    73.7
 274   17:00   62.4    62    4.2   248      6.1   995.6    0.00     156    73.9
 274   17:10   62.4    62    3.9   249      5.8   995.6    0.00     130    74.0
 274   17:20   61.6    63    2.3   265      5.8   995.6    0.00      85    74.2
 274   17:30   61.5    63    1.8   275      4.8   995.6    0.00      57    74.3
 274   17:40   60.4    66    0.8   299      2.4   995.3    0.00      33    74.4
 274   17:50   59.5    67    1.7   226      3.1   995.3    0.00      11    74.6
 274   18:00   58.5    69    1.2   200      2.6   995.3    0.00       3    74.7
 274   18:10   57.9    70    1.2   175      2.6   995.3    0.00       1    74.8
 274   18:20   57.1    72    1.3   168      2.8   995.3    0.00       0    74.8
 274   18:30   56.6    74    1.8   142      3.0   995.3    0.00       0    74.8
 274   18:40   56.1    74    1.2   148      2.0   994.9    0.00       0    74.9
 274   18:50   55.8    75    0.9   134      2.7   994.9    0.00       0    74.9
 274   19:00   55.7    76    0.7   165      1.5   994.9    0.00       0    74.9
 274   19:10   55.5    76    1.6   135      3.2   994.9    0.00       0    74.9
 274   19:20   55.6    76    1.2    76      3.2   994.9    0.00       0    74.9
 274   19:30   55.4    76    1.3    29      4.4   994.9    0.00       0    74.8
 274   19:40   55.6    76    2.6    66      4.7   994.9    0.00       0    74.8
 274   19:50   55.7    76    2.4    74      4.4   994.9    0.00       0    74.8
 274   20:00   55.9    74    2.0   154      5.2   994.9    0.00       0    74.7
 274   20:10   55.9    74    2.6   113      4.6   994.9    0.00       0    74.6
 274   20:20   56.1    74    1.8   110      3.5   994.6    0.00       0    74.6
 274   20:30   55.6    74    4.2   138      5.9   994.9    0.00       0    74.5

Return to Whale Point graphs page.


Western Regional Climate Center,wrcc@dri.edu